Time;durP1;ratioP1;P1;durP2;ratioP2;P2;SDS_P1;SDS_P2;PMS_P1;PMS_P2;Temp;Humidity;BMP_temperature;BMP_pressure;BME280_temperature;BME280_humidity;BME280_pressure;Samples;Min_cycle;Max_cycle;Signal;HPM_P1;HPM_P2
2021/05/06 00:02:26;;;;;;;4.88;1.13;;;;;;;4.40;69.50;99894.63;5024857;28;20041;-72
2021/05/06 00:10:26;;;;;;;3.80;1.30;;;;;;;4.30;69.78;99883.25;5023247;28;20049;-72
2021/05/06 00:34:19;;;;;;;4.05;1.10;;;;;;;4.09;70.02;99881.31;5025241;28;20034;-72
2021/05/06 00:36:45;;;;;;;6.53;1.30;;;;;;;4.09;70.38;99881.31;5022973;28;20046;-71
2021/05/06 00:39:15;;;;;;;4.72;1.67;;;;;;;4.10;70.43;99882.19;5024441;28;20104;-72
2021/05/06 00:42:07;;;;;;;4.90;1.23;;;;;;;4.12;70.40;99886.56;5030310;28;20071;-72
2021/05/06 01:06:08;;;;;;;2.92;1.25;;;;;;;3.95;71.11;99891.59;5021382;28;20416;-73
2021/05/06 01:08:43;;;;;;;2.83;1.13;;;;;;;3.94;71.08;99896.81;5023717;28;20402;-72
2021/05/06 01:13:42;;;;;;;5.43;1.73;;;;;;;3.95;71.37;99901.16;5023384;28;20033;-71
2021/05/06 01:16:08;;;;;;;4.10;2.10;;;;;;;3.91;71.06;99897.66;5016969;28;20030;-72
2021/05/06 01:18:33;;;;;;;4.10;1.50;;;;;;;3.92;71.30;99899.41;5036774;28;20411;-71
2021/05/06 01:21:01;;;;;;;4.07;2.08;;;;;;;3.90;71.50;99898.53;5021358;28;20422;-72
2021/05/06 01:23:28;;;;;;;3.45;1.60;;;;;;;3.92;70.83;99902.00;5039759;28;20501;-72
2021/05/06 01:26:00;;;;;;;3.45;1.33;;;;;;;3.90;71.26;99898.53;5024460;28;20038;-72
2021/05/06 01:28:29;;;;;;;5.07;1.83;;;;;;;3.86;72.00;99894.13;5021145;28;20053;-72
2021/05/06 01:31:09;;;;;;;4.70;1.92;;;;;;;3.81;71.71;99903.63;5021202;28;20037;-72
2021/05/06 01:36:12;;;;;;;2.85;1.50;;;;;;;3.76;72.05;99900.09;5023889;28;20464;-71
2021/05/06 01:38:50;;;;;;;3.15;1.73;;;;;;;3.71;71.92;99901.78;5022867;28;20052;-72
2021/05/06 01:46:53;;;;;;;4.80;2.25;;;;;;;3.59;72.53;99912.97;5020163;28;20038;-72
2021/05/06 01:57:39;;;;;;;4.72;2.17;;;;;;;3.48;73.16;99910.22;5020331;28;20515;-71
2021/05/06 02:00:23;;;;;;;4.32;2.20;;;;;;;3.48;73.10;99909.31;5021837;28;20037;-71
2021/05/06 02:02:56;;;;;;;4.03;1.65;;;;;;;3.44;73.50;99903.19;5017634;28;20037;-72
2021/05/06 02:05:25;;;;;;;4.25;2.17;;;;;;;3.42;73.96;99904.03;5037935;28;20104;-71
2021/05/06 02:07:51;;;;;;;5.90;2.63;;;;;;;3.42;74.16;99904.91;5022530;28;20505;-71
2021/05/06 02:10:25;;;;;;;6.30;2.17;;;;;;;3.48;74.15;99891.97;5017909;28;20053;-71
2021/05/06 02:12:53;;;;;;;4.95;2.45;;;;;;;3.49;73.86;99896.31;5037583;28;20026;-71
2021/05/06 02:15:35;;;;;;;4.90;2.20;;;;;;;3.50;73.77;99895.44;5021978;28;20032;-71
2021/05/06 02:18:02;;;;;;;3.30;2.08;;;;;;;3.51;73.97;99894.59;5019169;28;20026;-71
2021/05/06 02:20:27;;;;;;;5.38;2.70;;;;;;;3.54;73.67;99896.38;5023652;28;20099;-72
2021/05/06 02:22:54;;;;;;;4.38;2.75;;;;;;;3.59;74.97;99893.78;5020822;28;20034;-72
2021/05/06 02:25:20;;;;;;;3.97;2.50;;;;;;;3.61;74.31;99902.53;5022225;28;20072;-71
2021/05/06 02:27:48;;;;;;;4.80;2.42;;;;;;;3.70;74.24;99887.00;5021111;28;20033;-72
2021/05/06 02:30:14;;;;;;;4.45;2.45;;;;;;;3.73;73.97;99892.25;5022085;28;20033;-71
2021/05/06 02:32:40;;;;;;;5.47;3.03;;;;;;;3.74;73.54;99891.38;5021548;28;20044;-72
2021/05/06 02:35:06;;;;;;;5.80;2.85;;;;;;;3.81;74.29;99890.59;5021181;28;20034;-71
2021/05/06 02:37:32;;;;;;;7.03;2.97;;;;;;;3.83;73.86;99891.47;5022479;28;20041;-70
2021/05/06 02:39:57;;;;;;;7.30;3.13;;;;;;;3.85;73.66;99891.47;5020437;28;20095;-72
2021/05/06 02:42:22;;;;;;;7.38;3.17;;;;;;;3.86;73.66;99888.91;5023029;28;20029;-71
2021/05/06 02:44:48;;;;;;;6.63;2.78;;;;;;;3.87;73.33;99889.78;5014991;28;20513;-71
2021/05/06 02:47:14;;;;;;;5.68;3.58;;;;;;;3.80;74.11;99888.84;5018261;28;20096;-71
2021/05/06 02:49:44;;;;;;;6.60;2.92;;;;;;;3.85;73.43;99891.47;5022378;28;20163;-71
2021/05/06 02:52:20;;;;;;;6.13;3.00;;;;;;;3.85;73.72;99895.00;5020084;28;20088;-71
2021/05/06 02:54:53;;;;;;;6.10;3.15;;;;;;;3.84;73.27;99893.22;5019715;28;20038;-71
2021/05/06 02:57:38;;;;;;;5.32;3.05;;;;;;;3.82;73.95;99894.06;5022467;28;20485;-71
2021/05/06 03:02:51;;;;;;;6.15;3.25;;;;;;;3.78;74.23;99893.16;5020694;28;20046;-71
2021/05/06 03:05:23;;;;;;;4.95;2.88;;;;;;;3.81;74.35;99887.97;5022140;28;20091;-70
2021/05/06 03:07:56;;;;;;;6.40;3.63;;;;;;;3.79;74.30;99894.03;5020734;28;20482;-71
2021/05/06 03:13:20;;;;;;;6.20;3.83;;;;;;;3.74;74.70;99900.06;5022836;28;20029;-72
2021/05/06 03:23:45;;;;;;;5.22;3.08;;;;;;;3.76;74.95;99894.88;5020944;28;20498;-72
2021/05/06 03:26:12;;;;;;;6.57;3.15;;;;;;;3.80;74.79;99885.34;5020604;28;20098;-71
2021/05/06 03:28:42;;;;;;;7.47;3.40;;;;;;;3.74;75.63;99886.16;5021780;28;20041;-72
2021/05/06 03:41:37;;;;;;;5.88;2.83;;;;;;;3.69;75.47;99890.44;5019398;28;20041;-72
2021/05/06 03:42:48;;;;;;;5.97;3.22;;;;;;;3.68;75.05;99894.78;5023700;28;20038;-72
2021/05/06 03:45:40;;;;;;;5.53;3.08;;;;;;;3.64;75.29;99895.63;5023797;28;20429;-72
2021/05/06 04:03:15;;;;;;;4.65;2.53;;;;;;;3.67;75.70;99897.41;5021829;28;20033;-72
2021/05/06 04:13:24;;;;;;;7.07;3.80;;;;;;;3.68;75.32;99915.66;5025048;28;20036;-72
2021/05/06 04:16:00;;;;;;;6.80;3.00;;;;;;;3.72;75.29;99916.56;5025302;28;20030;-72
2021/05/06 04:18:32;;;;;;;8.90;4.10;;;;;;;3.73;75.52;99913.13;5025366;28;20532;-72
2021/05/06 04:26:33;;;;;;;6.95;3.53;;;;;;;3.89;74.67;99915.03;5026654;28;20069;-72
2021/05/06 04:37:10;;;;;;;4.80;3.35;;;;;;;4.33;74.11;99929.41;5023395;28;20037;-72
2021/05/06 04:39:46;;;;;;;7.30;3.53;;;;;;;4.46;73.96;99927.78;5024024;28;20048;-71
2021/05/06 04:42:47;;;;;;;6.30;3.65;;;;;;;4.59;73.29;99932.25;5022701;28;20711;-72
2021/05/06 04:45:59;;;;;;;6.13;3.83;;;;;;;4.76;73.18;99929.78;5024917;28;20029;-72
2021/05/06 04:53:41;;;;;;;6.50;4.03;;;;;;;5.27;71.48;99929.25;5023635;28;20049;-72
2021/05/06 05:04:01;;;;;;;4.63;2.92;;;;;;;5.82;69.35;99925.16;5023847;28;20033;-72
2021/05/06 05:06:32;;;;;;;5.63;3.38;;;;;;;5.94;69.23;99922.56;5022763;28;20113;-72
2021/05/06 05:09:32;;;;;;;5.80;3.20;;;;;;;6.04;68.85;99926.97;5024026;28;20469;-71
2021/05/06 05:12:06;;;;;;;6.53;3.20;;;;;;;5.99;68.91;99922.59;5023514;28;20041;-72
2021/05/06 05:14:39;;;;;;;6.55;3.67;;;;;;;5.93;69.03;99932.19;5021399;28;20105;-71
2021/05/06 05:20:03;;;;;;;5.57;3.10;;;;;;;5.74;69.37;99930.34;5020573;28;20029;-72
2021/05/06 05:25:16;;;;;;;6.53;3.67;;;;;;;5.77;69.21;99919.88;5022825;28;20391;-72
2021/05/06 05:27:41;;;;;;;8.57;4.45;;;;;;;5.84;69.18;99923.38;5023065;28;20655;-72
2021/05/06 05:30:07;;;;;;;6.32;4.03;;;;;;;5.83;69.55;99919.03;5022447;28;20120;-72
2021/05/06 05:32:33;;;;;;;6.55;3.72;;;;;;;5.79;69.73;99923.38;5022301;28;20410;-72
2021/05/06 05:37:31;;;;;;;7.78;3.35;;;;;;;5.97;69.08;99912.09;5024241;28;20440;-71
2021/05/06 05:55:34;;;;;;;7.57;4.40;;;;;;;6.60;67.44;99906.94;5021435;28;20040;-72
2021/05/06 05:57:59;;;;;;;5.47;3.40;;;;;;;6.66;66.89;99903.47;5022769;28;20033;-72
2021/05/06 06:00:24;;;;;;;7.20;3.47;;;;;;;6.73;67.10;99899.94;5020515;28;20056;-72
2021/05/06 06:02:50;;;;;;;5.30;3.38;;;;;;;6.87;67.17;99905.22;5021587;28;20052;-72
2021/05/06 06:05:15;;;;;;;6.43;3.50;;;;;;;6.96;66.04;99898.19;5022289;28;20086;-72
2021/05/06 06:07:40;;;;;;;5.00;3.00;;;;;;;7.14;66.16;99897.28;5020586;28;20176;-72
2021/05/06 06:10:06;;;;;;;7.28;2.60;;;;;;;7.24;65.57;99906.00;5024030;28;20124;-72
2021/05/06 06:12:31;;;;;;;5.13;2.65;;;;;;;7.21;64.25;99898.16;5020359;28;20037;-72
2021/05/06 06:15:02;;;;;;;4.43;2.42;;;;;;;7.19;63.83;99910.38;5023053;28;20044;-72
2021/05/06 06:17:31;;;;;;;5.05;2.42;;;;;;;7.31;63.42;99901.59;5020675;28;20049;-72
2021/05/06 06:19:59;;;;;;;4.47;2.75;;;;;;;7.50;63.78;99903.28;5023364;28;20033;-72
2021/05/06 06:22:26;;;;;;;4.97;2.53;;;;;;;7.63;63.28;99902.38;5020350;28;20046;-72
2021/05/06 06:24:52;;;;;;;4.72;2.58;;;;;;;7.87;63.29;99908.38;5023173;28;20120;-72
2021/05/06 06:27:19;;;;;;;3.78;2.40;;;;;;;8.06;62.27;99906.53;5019784;28;20137;-72
2021/05/06 06:29:44;;;;;;;3.90;2.35;;;;;;;8.27;61.26;99898.50;5025925;28;20047;-72
2021/05/06 06:32:14;;;;;;;5.55;2.58;;;;;;;8.49;59.99;99893.13;5021635;28;20120;-72
2021/05/06 06:34:40;;;;;;;4.18;2.47;;;;;;;8.68;60.23;99896.47;5022096;28;20490;-72
2021/05/06 06:37:05;;;;;;;4.32;2.10;;;;;;;8.83;58.67;99887.56;5021941;28;20041;-72
2021/05/06 06:39:31;;;;;;;4.72;2.72;;;;;;;8.78;59.01;99888.50;5021101;28;20037;-72
2021/05/06 06:41:56;;;;;;;4.40;2.47;;;;;;;8.81;57.86;99879.69;5022544;28;20033;-72
2021/05/06 06:44:27;;;;;;;6.53;2.40;;;;;;;8.81;58.19;99886.72;5020033;28;20038;-72
2021/05/06 06:47:02;;;;;;;4.85;2.60;;;;;;;9.00;58.01;99888.28;5022802;28;20037;-72
2021/05/06 06:49:32;;;;;;;5.95;2.30;;;;;;;9.13;57.68;99889.91;5020977;28;20132;-72
2021/05/06 06:51:58;;;;;;;3.60;2.00;;;;;;;9.45;56.95;99891.28;5019402;28;20394;-73
2021/05/06 06:54:25;;;;;;;5.30;2.42;;;;;;;9.44;56.31;99876.38;5020920;28;20443;-72
2021/05/06 06:56:51;;;;;;;4.90;2.40;;;;;;;9.49;56.39;99881.63;5022095;28;20389;-72
2021/05/06 06:59:16;;;;;;;3.28;1.85;;;;;;;9.39;57.11;99876.44;5021009;28;20037;-72
2021/05/06 07:01:42;;;;;;;4.70;2.40;;;;;;;9.38;56.85;99879.09;5022060;28;20044;-72
2021/05/06 07:04:07;;;;;;;4.70;2.13;;;;;;;9.54;56.68;99875.38;5019659;28;20128;-72
2021/05/06 07:06:33;;;;;;;5.93;2.05;;;;;;;9.56;56.85;99878.00;5018023;28;20045;-72
2021/05/06 07:08:58;;;;;;;5.10;2.30;;;;;;;9.57;56.11;99872.72;5020662;28;20037;-72
2021/05/06 07:11:24;;;;;;;3.58;1.85;;;;;;;9.60;55.47;99870.03;5019069;28;20044;-72
2021/05/06 07:13:49;;;;;;;5.47;2.13;;;;;;;9.64;55.65;99866.47;5021350;28;20084;-72
2021/05/06 07:16:14;;;;;;;4.15;2.20;;;;;;;9.71;55.89;99874.28;5020032;28;20041;-72
2021/05/06 07:18:40;;;;;;;5.88;2.47;;;;;;;9.69;56.37;99873.44;5020219;28;20068;-71
2021/05/06 07:21:06;;;;;;;5.10;2.33;;;;;;;9.55;56.14;99868.34;5022376;28;20108;-72
2021/05/06 07:23:32;;;;;;;4.00;2.28;;;;;;;9.51;55.65;99869.28;5019218;28;20037;-72
2021/05/06 07:25:59;;;;;;;4.57;2.25;;;;;;;9.47;56.31;99878.97;5022573;28;20125;-72
2021/05/06 07:28:32;;;;;;;4.43;2.10;;;;;;;9.43;55.43;99885.16;5019102;28;20038;-72
2021/05/06 07:31:02;;;;;;;5.55;2.30;;;;;;;9.43;56.65;99872.00;5019401;28;20053;-72
2021/05/06 07:33:29;;;;;;;4.43;2.15;;;;;;;9.55;55.74;99871.84;5022740;28;20037;-72
2021/05/06 07:35:55;;;;;;;5.35;2.53;;;;;;;9.53;55.90;99876.25;5019186;28;20034;-72
2021/05/06 07:38:21;;;;;;;5.97;2.03;;;;;;;9.56;54.99;99870.97;5024291;28;20029;-72
2021/05/06 07:40:46;;;;;;;6.70;2.08;;;;;;;9.81;54.36;99892.59;5028989;28;20038;-72
2021/05/06 07:43:11;;;;;;;3.92;2.08;;;;;;;9.47;54.17;99872.84;5034321;28;20141;-72
2021/05/06 07:45:37;;;;;;;4.03;1.90;;;;;;;9.25;55.45;99888.00;5020530;28;20041;-72
2021/05/06 07:48:02;;;;;;;4.05;2.17;;;;;;;9.37;55.38;99882.63;5018812;28;20033;-72
2021/05/06 07:50:28;;;;;;;4.50;2.00;;;;;;;9.37;56.47;99880.84;5020176;28;20410;-72
2021/05/06 07:53:02;;;;;;;4.22;2.42;;;;;;;9.62;56.33;99878.81;5021224;28;20033;-72
2021/05/06 07:55:28;;;;;;;5.43;2.17;;;;;;;9.75;55.22;99881.28;5024078;28;20489;-72
2021/05/06 07:57:54;;;;;;;5.80;2.30;;;;;;;9.62;53.93;99881.44;5020499;28;20030;-72
2021/05/06 08:00:21;;;;;;;4.20;2.33;;;;;;;9.59;55.03;99870.94;5021646;28;20029;-72
2021/05/06 08:02:48;;;;;;;5.55;2.38;;;;;;;9.64;53.67;99877.03;5019462;28;20496;-72
2021/05/06 08:05:15;;;;;;;5.68;2.15;;;;;;;9.75;54.98;99878.66;5021900;28;20037;-72
2021/05/06 08:07:41;;;;;;;4.25;2.60;;;;;;;9.71;54.37;99875.16;5019048;28;20096;-72
2021/05/06 08:10:07;;;;;;;5.05;2.38;;;;;;;9.77;54.99;99876.84;5022502;28;20060;-71
2021/05/06 08:12:32;;;;;;;4.53;2.60;;;;;;;9.95;54.90;99866.03;5018835;28;20030;-72
2021/05/06 08:14:58;;;;;;;4.90;2.42;;;;;;;10.20;53.87;99868.34;5017359;28;20083;-72
2021/05/06 08:17:24;;;;;;;5.53;2.70;;;;;;;10.22;52.63;99871.84;5024261;28;20492;-72
2021/05/06 08:19:49;;;;;;;13.82;3.92;;;;;;;10.45;52.49;99851.28;5026706;28;20045;-72
2021/05/06 08:22:15;;;;;;;4.60;2.33;;;;;;;10.78;50.78;99888.53;5026778;28;20132;-72
2021/05/06 08:24:41;;;;;;;4.18;2.03;;;;;;;10.66;50.45;99860.59;5024950;28;20056;-72
2021/05/06 08:27:06;;;;;;;4.70;2.10;;;;;;;10.61;51.52;99856.25;5024195;28;20410;-72
2021/05/06 08:29:32;;;;;;;3.17;2.20;;;;;;;10.63;52.43;99849.19;5044447;28;20404;-71
2021/05/06 08:31:57;;;;;;;3.40;2.00;;;;;;;10.85;51.59;99861.13;5025485;28;20045;-73
2021/05/06 08:34:23;;;;;;;3.03;1.50;;;;;;;10.93;49.92;99853.06;5022314;28;20041;-72
2021/05/06 08:36:48;;;;;;;2.35;1.48;;;;;;;11.24;51.24;99839.25;5025291;28;20037;-72
2021/05/06 08:39:14;;;;;;;3.60;2.10;;;;;;;11.61;48.96;99836.75;5022517;28;20034;-72
2021/05/06 08:41:41;;;;;;;3.60;1.85;;;;;;;11.75;49.31;99824.09;5024048;28;20040;-72
2021/05/06 08:44:09;;;;;;;3.00;1.70;;;;;;;11.78;47.10;99833.72;5023378;28;20035;-72
2021/05/06 08:46:39;;;;;;;4.30;1.63;;;;;;;11.98;46.61;99826.25;5023771;28;20046;-72
2021/05/06 08:49:07;;;;;;;4.63;1.70;;;;;;;11.80;47.24;99832.78;5023053;28;20044;-73
2021/05/06 08:51:35;;;;;;;2.55;1.15;;;;;;;11.84;44.91;99850.34;5037249;28;20077;-72
2021/05/06 08:54:00;;;;;;;3.70;1.80;;;;;;;11.60;44.96;99835.00;5027285;28;20597;-72
2021/05/06 08:56:26;;;;;;;4.55;1.50;;;;;;;11.43;46.23;99839.78;5023433;28;20129;-72
2021/05/06 08:58:52;;;;;;;5.72;1.35;;;;;;;11.30;45.98;99855.88;5024139;28;20116;-72
2021/05/06 09:01:18;;;;;;;3.78;1.80;;;;;;;11.40;47.13;99833.66;5022202;28;20406;-72
2021/05/06 09:03:43;;;;;;;3.22;1.60;;;;;;;11.59;46.43;99841.19;5024551;28;20079;-72
2021/05/06 09:06:21;;;;;;;3.30;1.30;;;;;;;11.47;46.82;99828.22;5021495;28;20049;-72
2021/05/06 09:09:00;;;;;;;3.25;1.52;;;;;;;11.54;46.16;99835.13;5023008;28;20112;-71
2021/05/06 09:11:35;;;;;;;2.63;1.30;;;;;;;11.77;45.51;99835.50;5021802;28;20036;-72
2021/05/06 09:14:04;;;;;;;3.63;1.20;;;;;;;12.14;45.21;99832.06;5025071;28;20640;-72
2021/05/06 09:16:39;;;;;;;4.10;1.40;;;;;;;11.74;45.24;99826.78;5043183;28;20037;-73
2021/05/06 09:19:06;;;;;;;3.03;1.27;;;;;;;11.72;46.09;99829.44;5026482;28;20456;-72
2021/05/06 09:21:34;;;;;;;2.72;0.90;;;;;;;11.66;45.15;99821.66;5028503;28;20025;-72
2021/05/06 09:24:06;;;;;;;3.63;1.20;;;;;;;11.59;46.47;99833.25;5021917;28;20489;-72
2021/05/06 09:26:32;;;;;;;2.83;0.93;;;;;;;11.90;45.82;99830.00;5022147;28;20128;-72
2021/05/06 09:28:57;;;;;;;2.25;1.00;;;;;;;12.17;45.92;99813.47;5029103;28;20109;-72
2021/05/06 09:31:24;;;;;;;2.85;1.20;;;;;;;12.37;45.54;99825.34;5036326;28;20037;-71
2021/05/06 09:33:52;;;;;;;3.72;1.20;;;;;;;12.31;45.13;99825.47;5026349;28;20497;-72
2021/05/06 09:36:20;;;;;;;3.00;1.17;;;;;;;12.20;45.06;99826.59;5034643;28;20037;-72
2021/05/06 09:38:56;;;;;;;3.58;1.25;;;;;;;11.85;45.83;99820.34;5023957;28;20115;-71
2021/05/06 09:41:23;;;;;;;4.35;1.33;;;;;;;11.66;43.50;99832.25;5020827;28;20044;-72
2021/05/06 09:43:49;;;;;;;4.25;1.23;;;;;;;11.46;44.85;99839.72;5024399;28;20048;-72
2021/05/06 09:46:29;;;;;;;4.18;1.33;;;;;;;11.34;45.52;99854.94;5024969;28;20103;-72
2021/05/06 09:49:07;;;;;;;2.30;0.93;;;;;;;11.14;44.88;99846.53;5032548;28;20505;-72
2021/05/06 09:51:40;;;;;;;5.80;1.25;;;;;;;10.97;44.56;99871.44;5022743;28;20034;-72
2021/05/06 09:54:14;;;;;;;3.13;0.60;;;;;;;10.40;46.96;99855.75;5021532;28;20042;-72
2021/05/06 09:56:42;;;;;;;1.50;0.52;;;;;;;10.22;48.44;99848.09;5024370;28;20048;-72
2021/05/06 09:59:07;;;;;;;2.28;0.70;;;;;;;9.99;50.95;99844.03;5024241;28;20034;-72
2021/05/06 10:01:41;;;;;;;1.48;0.50;;;;;;;9.88;52.65;99845.97;5020942;28;20305;-72
2021/05/06 10:04:17;;;;;;;3.03;0.50;;;;;;;9.81;53.71;99841.66;5020568;28;20037;-72
2021/05/06 10:06:43;;;;;;;2.40;0.70;;;;;;;9.79;54.40;99839.03;5020866;28;20033;-72
2021/05/06 10:09:08;;;;;;;4.63;1.70;;;;;;;9.98;54.07;99844.94;5019469;28;20130;-72
2021/05/06 10:11:34;;;;;;;18.60;11.45;;;;;;;10.34;51.98;99833.88;5025214;28;20037;-72
2021/05/06 10:14:00;;;;;;;14.10;7.00;;;;;;;10.60;51.37;99843.97;5021905;28;20037;-72
2021/05/06 10:16:26;;;;;;;18.90;12.88;;;;;;;11.02;50.71;99844.09;5021134;28;20029;-72
2021/05/06 10:18:53;;;;;;;2.42;0.90;;;;;;;11.37;50.04;99831.09;5022869;28;20045;-72
2021/05/06 10:21:19;;;;;;;1.77;0.75;;;;;;;11.71;48.81;99827.72;5023164;28;20038;-72
2021/05/06 10:23:47;;;;;;;1.90;0.77;;;;;;;12.03;48.39;99831.44;5020135;28;20513;-73
2021/05/06 10:26:14;;;;;;;3.05;1.30;;;;;;;12.09;48.55;99833.94;5020552;28;20032;-72
2021/05/06 10:28:41;;;;;;;4.13;1.10;;;;;;;12.23;48.32;99831.81;5023396;28;20069;-73
2021/05/06 10:31:09;;;;;;;4.53;1.40;;;;;;;12.19;48.40;99824.00;5025550;28;20034;-72
2021/05/06 10:33:38;;;;;;;4.72;1.40;;;;;;;11.90;49.00;99816.78;5021124;28;20553;-72
2021/05/06 10:36:04;;;;;;;4.45;1.40;;;;;;;11.73;49.14;99809.16;5022154;28;20051;-72
2021/05/06 10:38:35;;;;;;;4.35;1.23;;;;;;;11.58;50.54;99811.25;5020787;28;20029;-72
2021/05/06 10:41:22;;;;;;;3.15;1.40;;;;;;;11.55;51.18;99813.97;5022205;28;20037;-72
2021/05/06 10:43:58;;;;;;;3.72;1.40;;;;;;;11.91;50.13;99808.78;5019945;28;20041;-72
2021/05/06 10:47:02;;;;;;;4.65;1.45;;;;;;;12.07;48.67;99804.00;5019615;28;20529;-73
2021/05/06 10:49:30;;;;;;;3.83;1.42;;;;;;;12.02;47.85;99804.09;5020949;28;20092;-72
2021/05/06 10:52:13;;;;;;;2.42;1.08;;;;;;;12.11;47.07;99797.75;5024935;28;20052;-72
2021/05/06 10:54:49;;;;;;;3.50;0.93;;;;;;;12.40;46.50;99793.50;5031544;28;20120;-72
2021/05/06 10:57:15;;;;;;;3.63;1.52;;;;;;;12.64;46.40;99795.50;5027575;28;20029;-71
2021/05/06 10:59:42;;;;;;;6.05;1.85;;;;;;;13.06;45.78;99786.44;5020113;28;20433;-72
2021/05/06 11:02:08;;;;;;;2.55;1.15;;;;;;;13.47;43.21;99787.94;5022641;28;20501;-72
2021/05/06 11:04:38;;;;;;;3.00;1.08;;;;;;;13.55;42.71;99777.97;5019885;28;20025;-72
2021/05/06 11:07:15;;;;;;;2.97;1.05;;;;;;;13.68;42.00;99772.28;5022769;28;20069;-71
2021/05/06 11:09:46;;;;;;;4.97;1.40;;;;;;;13.75;40.23;99773.81;5019944;28;20030;-71
2021/05/06 11:12:18;;;;;;;2.95;1.27;;;;;;;13.80;41.52;99778.06;5022090;28;20068;-71
2021/05/06 11:14:59;;;;;;;3.30;1.05;;;;;;;13.43;40.35;99770.38;5020655;28;20513;-72
2021/05/06 11:17:37;;;;;;;2.28;1.00;;;;;;;13.05;39.28;99771.47;5019949;28;20044;-72
2021/05/06 11:20:25;;;;;;;3.92;1.10;;;;;;;12.56;40.50;99786.03;5019485;28;20391;-72
2021/05/06 11:22:53;;;;;;;3.85;1.13;;;;;;;12.47;37.51;99803.91;5019920;28;20034;-71
2021/05/06 11:27:53;;;;;;;3.70;1.25;;;;;;;12.06;43.26;99779.34;5022740;28;20057;-72
2021/05/06 11:30:49;;;;;;;3.58;1.80;;;;;;;12.34;43.57;99786.59;5019800;28;20520;-72
2021/05/06 11:35:58;;;;;;;1.45;0.75;;;;;;;13.14;40.93;99763.25;5021698;28;20042;-72
2021/05/06 11:38:45;;;;;;;2.90;0.90;;;;;;;13.50;39.29;99761.31;5019599;28;20402;-72
2021/05/06 11:41:28;;;;;;;3.03;1.08;;;;;;;13.59;37.67;99734.50;5020070;28;20053;-72
2021/05/06 11:43:58;;;;;;;3.03;1.15;;;;;;;14.22;35.89;99736.91;5019317;28;20034;-72
2021/05/06 11:48:59;;;;;;;11.98;6.45;;;;;;;15.01;34.64;99732.41;5005729;28;20188;-74
2021/05/06 11:51:33;;;;;;;2.70;0.80;;;;;;;15.06;34.85;99741.06;5016178;28;20399;-74
2021/05/06 11:54:03;;;;;;;5.00;1.35;;;;;;;14.47;34.20;99740.47;4998408;28;20503;-74
2021/05/06 11:56:29;;;;;;;4.15;1.10;;;;;;;14.36;33.98;99732.03;5001983;28;20506;-74
2021/05/06 11:58:54;;;;;;;3.40;0.88;;;;;;;14.27;34.66;99729.66;5002662;28;20117;-74
2021/05/06 12:01:23;;;;;;;2.13;1.00;;;;;;;14.31;34.91;99730.44;5004454;28;20410;-74
2021/05/06 12:03:49;;;;;;;3.22;1.10;;;;;;;14.57;35.87;99727.78;5004810;28;20044;-74
2021/05/06 12:06:26;;;;;;;4.38;1.40;;;;;;;14.07;37.02;99738.31;5006532;28;20030;-74
2021/05/06 12:08:51;;;;;;;3.17;1.33;;;;;;;13.67;37.39;99728.97;5004783;28;20512;-74
2021/05/06 12:11:16;;;;;;;5.22;1.58;;;;;;;13.54;37.66;99725.84;5004910;28;20073;-75
2021/05/06 12:13:46;;;;;;;5.07;1.30;;;;;;;13.71;38.00;99738.59;5003399;28;20193;-75
2021/05/06 12:16:19;;;;;;;4.32;1.40;;;;;;;14.71;37.79;99729.94;5006012;28;20034;-74
2021/05/06 12:19:00;;;;;;;2.65;1.50;;;;;;;15.09;35.51;99725.00;5004341;28;20438;-74
2021/05/06 12:21:29;;;;;;;2.00;1.08;;;;;;;15.68;33.38;99721.81;5002905;28;20404;-74
2021/05/06 12:23:55;;;;;;;3.28;1.50;;;;;;;16.28;32.17;99708.75;5003008;28;20514;-74
2021/05/06 12:26:20;;;;;;;4.05;1.60;;;;;;;16.50;32.54;99706.00;5003138;28;20080;-75
2021/05/06 12:28:47;;;;;;;3.78;1.77;;;;;;;16.79;30.94;99693.22;5003285;28;20165;-75
2021/05/06 12:31:12;;;;;;;2.92;1.20;;;;;;;16.76;31.22;99699.53;5020936;28;20034;-75
2021/05/06 12:33:37;;;;;;;2.40;1.08;;;;;;;16.50;32.21;99690.03;5002493;28;20042;-74
2021/05/06 12:36:03;;;;;;;6.80;1.33;;;;;;;16.91;30.77;99684.69;4987985;28;20033;-75
2021/05/06 12:38:30;;;;;;;2.72;1.00;;;;;;;16.60;30.92;99685.16;5002318;28;20097;-74
2021/05/06 12:40:56;;;;;;;3.53;1.15;;;;;;;16.05;32.15;99699.06;5004122;28;20383;-74
2021/05/06 12:43:29;;;;;;;2.72;1.52;;;;;;;16.05;31.72;99691.06;5004654;28;20108;-74
2021/05/06 12:46:10;;;;;;;4.40;1.63;;;;;;;16.69;31.00;99683.88;5017781;28;20042;-75
2021/05/06 12:48:56;;;;;;;2.10;0.77;;;;;;;16.80;29.12;99702.97;5017748;28;20050;-74
2021/05/06 12:51:33;;;;;;;3.22;1.13;;;;;;;16.25;30.00;99687.59;5001923;28;20042;-75
2021/05/06 12:54:10;;;;;;;2.22;0.85;;;;;;;16.88;30.02;99679.50;5004767;28;20048;-74
2021/05/06 12:56:40;;;;;;;3.60;1.00;;;;;;;15.77;32.38;99678.03;5004903;28;20099;-74
2021/05/06 12:59:23;;;;;;;4.90;1.15;;;;;;;15.94;33.03;99682.69;5002284;28;20405;-74
2021/05/06 13:01:49;;;;;;;2.97;1.50;;;;;;;17.28;31.86;99678.50;5001958;28;20533;-75
2021/05/06 13:04:15;;;;;;;2.78;1.13;;;;;;;17.53;30.32;99682.69;5005372;28;20034;-75
2021/05/06 13:06:40;;;;;;;3.10;1.20;;;;;;;16.43;31.64;99672.59;5017166;28;20042;-75
2021/05/06 13:09:16;;;;;;;2.65;0.85;;;;;;;16.27;32.53;99691.06;5004246;28;20079;-75
2021/05/06 13:11:42;;;;;;;2.88;1.58;;;;;;;16.31;32.90;99689.09;5004554;28;20034;-74
2021/05/06 13:14:08;;;;;;;2.67;1.42;;;;;;;16.34;34.07;99670.34;5001688;28;20707;-74
2021/05/06 13:16:38;;;;;;;3.22;1.40;;;;;;;16.20;34.73;99658.47;5005046;28;20049;-74
2021/05/06 13:19:09;;;;;;;6.28;1.35;;;;;;;15.74;35.48;99670.19;5018588;28;20057;-75
2021/05/06 13:21:36;;;;;;;4.27;1.70;;;;;;;15.99;34.97;99672.72;5002435;28;20034;-75
2021/05/06 13:24:04;;;;;;;3.92;1.00;;;;;;;15.44;35.59;99672.28;5005065;28;20034;-75
2021/05/06 13:26:40;;;;;;;2.83;0.98;;;;;;;15.44;35.96;99665.16;5005428;28;20050;-77
2021/05/06 13:29:14;;;;;;;4.70;1.58;;;;;;;15.68;35.85;99665.97;5002504;28;20502;-76
2021/05/06 13:31:41;;;;;;;3.67;1.25;;;;;;;15.22;36.02;99674.91;5019882;28;20125;-76
2021/05/06 13:34:14;;;;;;;3.75;1.50;;;;;;;14.95;36.36;99668.88;5018625;28;20503;-76
2021/05/06 13:36:40;;;;;;;3.03;1.17;;;;;;;14.90;36.58;99661.06;5020347;28;20129;-79
2021/05/06 13:39:07;;;;;;;4.40;2.30;;;;;;;15.51;35.63;99666.66;5010114;28;20486;-79
2021/05/06 13:41:39;;;;;;;3.33;1.50;;;;;;;15.30;35.82;99660.41;5006007;28;20038;-79
2021/05/06 13:44:06;;;;;;;3.42;1.30;;;;;;;15.06;35.83;99664.00;5008796;28;20030;-78
2021/05/06 13:46:34;;;;;;;2.42;1.20;;;;;;;14.80;36.90;99660.56;5007358;28;20076;-78
2021/05/06 13:49:00;;;;;;;4.05;1.20;;;;;;;14.92;36.83;99656.56;5006995;28;20092;-79
2021/05/06 13:51:27;;;;;;;5.85;1.58;;;;;;;15.13;36.05;99646.91;5013087;28;20034;-80
2021/05/06 13:53:54;;;;;;;3.90;1.95;;;;;;;16.39;34.07;99639.03;5028729;28;20030;-79
2021/05/06 13:56:20;;;;;;;3.13;1.23;;;;;;;17.18;32.70;99641.69;5013709;28;20058;-81
2021/05/06 13:58:45;;;;;;;3.95;2.30;;;;;;;17.88;30.91;99651.59;5010381;28;20044;-79
2021/05/06 14:01:13;;;;;;;2.05;1.05;;;;;;;17.30;31.64;99635.78;5010391;28;20509;-78
2021/05/06 14:03:38;;;;;;;3.55;1.40;;;;;;;16.68;32.64;99635.06;5010459;28;20064;-78
2021/05/06 14:06:05;;;;;;;5.18;2.75;;;;;;;17.90;30.60;99639.06;5010288;28;20445;-78
2021/05/06 14:08:31;;;;;;;4.72;2.15;;;;;;;19.67;29.31;99627.72;5010589;28;20033;-80
2021/05/06 14:10:57;;;;;;;4.43;2.45;;;;;;;20.49;28.00;99625.56;5012226;28;20042;-78
2021/05/06 14:13:23;;;;;;;5.80;1.73;;;;;;;20.68;26.97;99622.63;5019069;28;20560;-77
2021/05/06 14:15:49;;;;;;;4.05;1.50;;;;;;;19.07;28.85;99635.56;5001259;28;20038;-79
2021/05/06 14:18:16;;;;;;;3.22;1.45;;;;;;;18.00;30.14;99628.78;5010405;28;20125;-77
2021/05/06 14:20:42;;;;;;;4.05;1.73;;;;;;;17.88;30.42;99642.75;5006234;28;20160;-78
2021/05/06 14:23:09;;;;;;;5.10;1.52;;;;;;;17.89;30.26;99640.00;5009580;28;20038;-79
2021/05/06 14:25:35;;;;;;;4.32;1.30;;;;;;;17.64;30.94;99637.66;5029098;28;20065;-78
2021/05/06 14:28:02;;;;;;;4.55;1.48;;;;;;;17.01;31.85;99643.34;5006854;28;20138;-78
2021/05/06 14:30:27;;;;;;;2.95;1.45;;;;;;;16.89;31.98;99654.56;5025304;28;20034;-78
2021/05/06 14:32:53;;;;;;;4.28;1.75;;;;;;;16.78;32.63;99657.72;5021696;28;20077;-79
2021/05/06 14:35:18;;;;;;;3.60;1.38;;;;;;;16.72;33.22;99654.47;5009052;28;20069;-78
2021/05/06 14:37:44;;;;;;;5.30;1.90;;;;;;;16.47;33.72;99650.22;5005919;28;20053;-78
2021/05/06 14:40:10;;;;;;;3.40;1.23;;;;;;;16.55;33.78;99649.88;5011432;28;20095;-78